Time,TemperatureF,DewpointF,PressureIn,WindDirection,WindDirectionDegrees,WindSpeedMPH,WindSpeedGustMPH,Humidity,HourlyPrecipIn,Conditions,Clouds,dailyrainin,SoftwareType,DateUTC
2013-04-22 00:42:00,56.3,48.1,29.97,WNW,284,0.0,1.0,74,0.00,,,0.00,Wunderground v.1.15,2013-04-22 07:42:00,
2013-04-22 00:52:00,55.9,48.1,29.97,WNW,283,0.0,0.0,75,0.00,,,0.00,Wunderground v.1.15,2013-04-22 07:52:00,
2013-04-22 01:02:00,55.8,48.0,29.97,WNW,283,0.0,0.0,75,0.00,,,0.00,Wunderground v.1.15,2013-04-22 08:02:00,
2013-04-22 02:42:00,54.5,47.1,29.95,East,81,0.0,1.0,76,0.00,,,0.00,Wunderground v.1.15,2013-04-22 09:42:00,
2013-04-22 09:22:00,67.2,52.4,29.97,SSE,167,0.0,1.0,59,0.00,,,0.00,Wunderground v.1.15,2013-04-22 16:22:00,
2013-04-22 09:32:00,68.9,53.0,29.97,SSE,167,0.0,0.0,57,0.00,,,0.00,Wunderground v.1.15,2013-04-22 16:32:00,
2013-04-22 10:12:00,74.8,48.9,29.97,WSW,256,1.0,1.0,40,0.00,,,0.00,Wunderground v.1.15,2013-04-22 17:12:00,
2013-04-22 11:42:00,81.1,47.6,29.96,WNW,293,1.0,3.0,31,0.00,,,0.00,Wunderground v.1.15,2013-04-22 18:42:00,
2013-04-22 11:52:00,81.7,47.2,29.96,WSW,258,1.0,1.0,30,0.00,,,0.00,Wunderground v.1.15,2013-04-22 18:52:00,
2013-04-22 12:02:00,82.4,47.8,29.95,SW,225,0.0,1.0,30,0.00,,,0.00,Wunderground v.1.15,2013-04-22 19:02:00,
2013-04-22 12:12:00,83.7,46.2,29.95,NNW,327,1.0,1.0,27,0.00,,,0.00,Wunderground v.1.15,2013-04-22 19:12:00,
2013-04-22 13:22:00,88.1,43.2,29.92,SW,214,1.0,1.0,21,0.00,,,0.00,Wunderground v.1.15,2013-04-22 20:22:00,
2013-04-22 13:32:00,88.9,41.3,29.91,NW,305,1.0,1.0,19,0.00,,,0.00,Wunderground v.1.15,2013-04-22 20:32:00,
2013-04-22 13:42:00,89.5,43.1,29.90,WSW,249,1.0,1.0,20,0.00,,,0.00,Wunderground v.1.15,2013-04-22 20:42:00,
2013-04-22 13:52:00,90.8,41.4,29.90,WSW,258,1.0,1.0,18,0.00,,,0.00,Wunderground v.1.15,2013-04-22 20:52:00,
2013-04-22 14:02:00,91.0,41.6,29.90,WSW,237,1.0,1.0,18,0.00,,,0.00,Wunderground v.1.15,2013-04-22 21:02:00,
2013-04-22 14:12:00,90.1,44.9,29.90,NNW,327,2.0,5.0,21,0.00,,,0.00,Wunderground v.1.15,2013-04-22 21:12:00,
2013-04-22 14:22:00,87.5,46.3,29.90,NNW,339,4.0,6.0,24,0.00,,,0.00,Wunderground v.1.15,2013-04-22 21:22:00,
2013-04-22 14:32:00,87.0,46.9,29.90,NW,320,4.0,4.0,25,0.00,,,0.00,Wunderground v.1.15,2013-04-22 21:32:00,
2013-04-22 14:42:00,86.4,43.1,29.89,NNW,344,5.0,5.0,22,0.00,,,0.00,Wunderground v.1.15,2013-04-22 21:42:00,
2013-04-22 15:02:00,86.5,45.4,29.88,WNW,301,5.0,5.0,24,0.00,,,0.00,Wunderground v.1.15,2013-04-22 22:02:00,
2013-04-22 15:12:00,87.0,45.8,29.88,NW,316,4.0,4.0,24,0.00,,,0.00,Wunderground v.1.15,2013-04-22 22:12:00,
2013-04-22 15:22:00,88.4,45.9,29.87,NNW,337,3.0,5.0,23,0.00,,,0.00,Wunderground v.1.15,2013-04-22 22:22:00,
2013-04-22 15:32:00,87.5,46.3,29.87,NNE,21,4.0,4.0,24,0.00,,,0.00,Wunderground v.1.15,2013-04-22 22:32:00,
2013-04-22 15:42:00,86.4,47.5,29.86,North,354,4.0,4.0,26,0.00,,,0.00,Wunderground v.1.15,2013-04-22 22:42:00,
2013-04-22 15:52:00,85.9,47.0,29.86,NNW,346,4.0,4.0,26,0.00,,,0.00,Wunderground v.1.15,2013-04-22 22:52:00,
2013-04-22 16:02:00,86.2,47.3,29.85,NE,43,3.0,4.0,26,0.00,,,0.00,Wunderground v.1.15,2013-04-22 23:02:00,
2013-04-22 16:12:00,87.8,50.6,29.85,NW,320,2.0,2.0,28,0.00,,,0.00,Wunderground v.1.15,2013-04-22 23:12:00,
2013-04-22 16:22:00,90.6,53.0,29.85,WNW,293,1.0,1.0,28,0.00,,,0.00,Wunderground v.1.15,2013-04-22 23:22:00,
2013-04-22 16:32:00,91.5,50.7,29.84,NW,314,2.0,2.0,25,0.00,,,0.00,Wunderground v.1.15,2013-04-22 23:32:00,
2013-04-22 22:52:00,59.3,49.5,29.89,NNW,337,0.0,9.0,70,0.00,,,0.00,Wunderground v.1.15,2013-04-23 05:52:00,
2013-04-22 23:02:00,59.0,49.2,29.89,NNW,336,0.0,0.0,70,0.00,,,0.00,Wunderground v.1.15,2013-04-23 06:02:00,
2013-04-22 23:12:00,58.8,49.4,29.89,NNW,336,0.0,2.0,71,0.00,,,0.00,Wunderground v.1.15,2013-04-23 06:12:00,
2013-04-22 23:22:00,58.6,49.6,29.89,NNW,337,0.0,0.0,72,0.00,,,0.00,Wunderground v.1.15,2013-04-23 06:22:00,
2013-04-22 23:32:00,58.6,50.3,29.88,NNW,337,0.0,0.0,74,0.00,,,0.00,Wunderground v.1.15,2013-04-23 06:32:00,
2013-04-22 23:42:00,58.5,50.2,29.88,NNW,338,0.0,1.0,74,0.00,,,0.00,Wunderground v.1.15,2013-04-23 06:42:00,
2013-04-22 23:52:00,58.2,49.6,29.88,NNW,343,0.0,0.0,73,0.00,,,0.00,Wunderground v.1.15,2013-04-23 06:52:00,